Time;durP1;ratioP1;P1;durP2;ratioP2;P2;SDS_P1;SDS_P2;PMS_P1;PMS_P2;Temp;Humidity;BMP_temperature;BMP_pressure;BME280_temperature;BME280_humidity;BME280_pressure;Samples;Min_cycle;Max_cycle;Signal;HPM_P1;HPM_P2
2022/07/25 00:02:57;;;;;;;;;13.00;12.50;;;;;24.82;41.85;99022.88;6092744;28;96905;-59
2022/07/25 00:06:00;;;;;;;;;12.80;11.40;;;;;24.73;41.94;99013.72;6092495;28;97423;-58
2022/07/25 00:09:04;;;;;;;;;12.00;11.00;;;;;24.71;42.03;99022.28;6091438;28;97045;-57
2022/07/25 00:12:08;;;;;;;;;14.00;13.00;;;;;24.68;41.85;99025.66;6092602;28;97179;-59
2022/07/25 00:15:14;;;;;;;;;14.00;14.00;;;;;24.63;42.20;99020.25;6093034;28;96621;-59
2022/07/25 00:18:18;;;;;;;;;12.60;11.60;;;;;24.58;42.37;99020.38;6092259;28;96792;-58
2022/07/25 00:21:21;;;;;;;;;10.80;10.00;;;;;24.57;42.23;99016.81;6091581;28;97438;-58
2022/07/25 00:24:24;;;;;;;;;12.25;12.00;;;;;24.53;42.38;99012.22;6092910;28;96916;-59
2022/07/25 00:27:28;;;;;;;;;14.00;13.00;;;;;24.49;42.35;99012.00;6092424;28;96703;-57
2022/07/25 00:30:33;;;;;;;;;16.00;14.00;;;;;24.48;42.39;99006.84;6092631;28;97472;-58
2022/07/25 00:33:39;;;;;;;;;12.60;12.00;;;;;24.46;42.54;99009.06;6092458;28;97279;-57
2022/07/25 00:36:42;;;;;;;;;13.00;12.20;;;;;24.43;42.42;99010.53;6091724;28;97431;-57
2022/07/25 00:39:46;;;;;;;;;14.00;14.00;;;;;24.42;42.36;99005.31;6097316;28;97498;-57
2022/07/25 00:42:50;;;;;;;;;13.00;12.00;;;;;24.38;42.47;99007.88;6092299;28;96830;-58
2022/07/25 00:45:54;;;;;;;;;11.00;11.00;;;;;24.36;42.42;99009.28;6092216;28;97411;-59
2022/07/25 00:48:58;;;;;;;;;13.00;13.00;;;;;24.30;42.45;99005.81;6092042;28;96725;-58
2022/07/25 00:52:01;;;;;;;;;13.00;12.75;;;;;24.28;42.43;98999.84;6092076;28;97799;-58
2022/07/25 00:55:06;;;;;;;;;13.00;12.50;;;;;24.24;42.78;99003.50;6091034;28;96761;-59
2022/07/25 00:58:10;;;;;;;;;13.60;13.60;;;;;24.24;42.80;99003.50;6094550;28;97050;-57
2022/07/25 01:01:15;;;;;;;;;12.00;11.80;;;;;24.19;42.61;99000.88;6092191;28;97597;-58
2022/07/25 01:04:18;;;;;;;;;14.00;13.40;;;;;24.19;42.53;98998.13;6091751;28;97613;-57
2022/07/25 01:07:22;;;;;;;;;13.00;12.00;;;;;24.16;42.53;98991.22;6091294;28;97026;-58
2022/07/25 01:10:26;;;;;;;;;12.20;11.40;;;;;24.16;42.73;98988.47;6090590;28;97589;-56
2022/07/25 01:13:32;;;;;;;;;15.40;15.40;;;;;24.13;42.50;98989.09;6090911;28;97285;-58
2022/07/25 01:16:37;;;;;;;;;14.00;14.00;;;;;24.12;42.67;98984.72;6092272;28;98022;-58
2022/07/25 01:19:40;;;;;;;;;14.00;13.00;;;;;24.09;42.78;98979.81;6091517;28;97098;-58
2022/07/25 01:22:46;;;;;;;;;13.60;13.60;;;;;23.89;42.47;98949.97;6091284;28;97520;-56
2022/07/25 01:25:49;;;;;;;;;13.50;12.50;;;;;24.04;42.56;98969.72;6090176;28;97382;-57
2022/07/25 01:28:53;;;;;;;;;13.60;13.20;;;;;23.99;42.73;98975.34;6090539;28;97282;-57
2022/07/25 01:31:57;;;;;;;;;13.50;13.00;;;;;23.98;42.83;98968.22;6090774;28;96692;-59
2022/07/25 01:35:00;;;;;;;;;14.00;14.00;;;;;23.98;42.97;98967.38;6091317;28;96815;-57
2022/07/25 01:38:05;;;;;;;;;13.33;13.33;;;;;23.97;42.71;98976.75;6091546;28;96444;-58
2022/07/25 01:41:08;;;;;;;;;16.25;16.00;;;;;23.95;42.77;98973.50;6090516;28;98306;-58
2022/07/25 01:44:12;;;;;;;;;14.00;14.00;;;;;23.93;42.91;98973.00;6091453;28;96671;-57
2022/07/25 01:47:16;;;;;;;;;15.00;15.00;;;;;23.92;43.09;98974.13;6091058;28;96564;-59
2022/07/25 01:50:19;;;;;;;;;17.00;17.00;;;;;23.90;42.95;98968.09;6090923;28;97972;-58
2022/07/25 01:53:24;;;;;;;;;13.25;13.25;;;;;23.65;43.02;98937.19;6091326;28;97568;-58
2022/07/25 01:56:28;;;;;;;;;13.00;12.60;;;;;23.85;43.24;98969.00;6090452;28;96768;-57
2022/07/25 01:59:37;;;;;;;;;12.00;12.00;;;;;23.84;43.02;98967.41;6091166;28;97464;-58
2022/07/25 02:02:41;;;;;;;;;13.00;13.00;;;;;23.82;42.96;98964.13;6090703;28;97545;-57
2022/07/25 02:05:44;;;;;;;;;17.00;16.00;;;;;23.81;43.23;98965.25;6090715;28;96978;-56
2022/07/25 02:08:49;;;;;;;;;12.00;11.60;;;;;23.78;43.34;98968.63;6088778;28;97102;-56
2022/07/25 02:11:52;;;;;;;;;13.00;12.00;;;;;23.78;43.03;98963.13;6089786;28;97776;-58
2022/07/25 02:14:56;;;;;;;;;14.00;14.00;;;;;23.76;42.98;98948.81;6089828;28;96721;-57
2022/07/25 02:17:59;;;;;;;;;14.00;13.00;;;;;23.74;43.07;98960.16;6089591;28;97596;-56
2022/07/25 02:21:05;;;;;;;;;13.80;13.80;;;;;23.71;43.11;98959.94;6090631;28;96923;-56
2022/07/25 02:24:18;;;;;;;;;13.60;13.60;;;;;23.71;43.16;98965.44;6090877;28;97467;-57
2022/07/25 02:27:21;;;;;;;;;10.00;10.00;;;;;23.70;43.30;98961.09;6088551;28;99591;-58
2022/07/25 02:30:25;;;;;;;;;13.00;13.00;;;;;23.69;43.07;98964.94;6086284;28;96845;-58
2022/07/25 02:33:29;;;;;;;;;14.60;14.60;;;;;23.67;43.11;98969.94;6086910;28;96751;-57
2022/07/25 02:36:32;;;;;;;;;15.00;14.75;;;;;23.66;43.42;98968.28;6089099;28;97392;-56
2022/07/25 02:39:37;;;;;;;;;14.00;14.00;;;;;23.66;43.52;98968.28;6089813;28;98773;-56
2022/07/25 02:42:40;;;;;;;;;16.00;15.00;;;;;23.64;43.35;98971.38;6090785;28;97095;-56
2022/07/25 02:45:44;;;;;;;;;17.00;17.00;;;;;23.63;43.04;98968.91;6093714;28;96650;-57
2022/07/25 02:48:47;;;;;;;;;15.60;14.60;;;;;23.62;43.65;98970.03;6084333;28;97518;-56
2022/07/25 02:51:50;;;;;;;;;15.40;15.00;;;;;23.62;43.14;98964.53;6094272;28;97524;-57
2022/07/25 02:54:55;;;;;;;;;15.00;13.50;;;;;23.59;43.07;98968.72;6094732;28;96790;-56
2022/07/25 02:57:58;;;;;;;;;14.80;14.00;;;;;23.57;43.12;98964.63;6094462;28;98192;-58
2022/07/25 03:01:02;;;;;;;;;15.20;15.00;;;;;23.53;43.07;98967.19;6089202;28;97105;-57
2022/07/25 03:04:05;;;;;;;;;18.50;17.50;;;;;23.52;43.04;98961.97;6092411;28;97556;-57
2022/07/25 03:07:09;;;;;;;;;12.25;12.25;;;;;23.51;43.21;98968.59;6092332;28;97279;-57
2022/07/25 03:10:14;;;;;;;;;16.80;16.00;;;;;23.48;43.18;98963.69;6083317;28;97208;-58
2022/07/25 03:13:18;;;;;;;;;18.40;17.40;;;;;23.47;42.94;98964.81;6093965;28;96754;-58
2022/07/25 03:16:21;;;;;;;;;15.20;14.60;;;;;23.44;43.36;98960.72;6093075;28;97624;-58
2022/07/25 03:19:25;;;;;;;;;18.00;17.00;;;;;23.45;43.29;98972.56;6093680;28;96912;-56
2022/07/25 03:22:28;;;;;;;;;18.60;17.60;;;;;23.44;43.37;98973.66;6093683;28;96930;-58
2022/07/25 03:25:36;;;;;;;;;14.00;13.60;;;;;23.43;43.25;98972.84;6092629;28;96738;-57
2022/07/25 03:28:39;;;;;;;;;16.20;16.20;;;;;23.44;43.31;98976.41;6094184;28;97503;-58
2022/07/25 03:31:43;;;;;;;;;15.00;15.00;;;;;23.45;43.36;98975.34;6090801;28;97832;-55
2022/07/25 03:34:46;;;;;;;;;14.00;14.00;;;;;23.47;43.01;98978.56;6092371;28;97654;-57
2022/07/25 03:37:50;;;;;;;;;19.00;19.00;;;;;23.50;43.12;98989.00;6083409;28;97126;-57
2022/07/25 03:40:55;;;;;;;;;17.80;16.80;;;;;23.51;43.26;98982.34;6091933;28;98400;-57
2022/07/25 03:43:58;;;;;;;;;17.00;17.00;;;;;23.53;43.32;98983.69;6092639;28;97344;-59
2022/07/25 03:47:02;;;;;;;;;14.60;14.00;;;;;23.57;43.50;98981.13;6090816;28;97589;-57
2022/07/25 03:50:06;;;;;;;;;14.00;14.00;;;;;23.63;43.31;98986.25;6092608;28;97476;-58
2022/07/25 03:53:09;;;;;;;;;11.00;11.00;;;;;23.68;43.46;98983.41;6092707;28;97444;-57
2022/07/25 03:56:14;;;;;;;;;15.40;15.40;;;;;23.74;43.33;98979.44;6091863;28;96805;-58
2022/07/25 03:59:20;;;;;;;;;16.00;15.20;;;;;23.79;43.16;98981.28;6091057;28;97432;-57
2022/07/25 04:02:23;;;;;;;;;19.40;19.00;;;;;23.83;43.14;98979.53;6091225;28;98447;-58
2022/07/25 04:05:28;;;;;;;;;18.00;18.00;;;;;23.89;42.92;98980.25;6086579;28;97734;-58
2022/07/25 04:08:32;;;;;;;;;15.20;14.60;;;;;23.91;42.92;98981.56;6090308;28;97997;-57
2022/07/25 04:11:37;;;;;;;;;19.00;18.00;;;;;23.98;42.80;98978.41;6091782;28;96788;-59
2022/07/25 04:14:40;;;;;;;;;17.40;16.40;;;;;24.04;42.50;98974.44;6092631;28;97652;-57
2022/07/25 04:17:44;;;;;;;;;15.40;15.40;;;;;24.10;42.68;98967.66;6088960;28;96780;-57
2022/07/25 04:20:47;;;;;;;;;18.33;17.00;;;;;24.15;42.48;98968.38;6085808;28;97323;-58
2022/07/25 04:23:51;;;;;;;;;19.00;19.00;;;;;24.21;42.67;98955.34;6080782;28;96964;-58
2022/07/25 04:26:56;;;;;;;;;15.00;14.20;;;;;24.31;42.58;98963.38;6082159;28;97109;-57
2022/07/25 04:29:59;;;;;;;;;18.00;17.50;;;;;24.43;42.22;98965.59;6090393;28;97098;-57
2022/07/25 04:33:03;;;;;;;;;14.40;14.00;;;;;24.53;42.18;98959.88;6082762;28;97165;-59
2022/07/25 04:36:07;;;;;;;;;16.60;16.00;;;;;24.66;42.07;98955.41;6078690;28;97497;-58
2022/07/25 04:39:10;;;;;;;;;16.80;15.80;;;;;24.78;42.33;98950.97;6080929;28;97478;-58
2022/07/25 04:42:15;;;;;;;;;17.40;16.40;;;;;24.93;42.58;98950.63;6080246;28;97662;-57
2022/07/25 04:45:18;;;;;;;;;16.67;16.00;;;;;25.05;42.93;98952.00;6088197;28;97935;-58
2022/07/25 04:48:22;;;;;;;;;19.00;19.00;;;;;25.12;42.94;98944.88;6090886;28;97544;-59
2022/07/25 04:51:25;;;;;;;;;18.00;16.00;;;;;25.24;42.89;98945.13;6084799;28;96683;-57
2022/07/25 04:54:29;;;;;;;;;17.60;16.60;;;;;25.37;43.04;98937.88;6085131;28;97076;-58
2022/07/25 04:57:35;;;;;;;;;16.60;15.00;;;;;25.49;42.66;98940.88;6088151;28;97231;-58
2022/07/25 05:00:39;;;;;;;;;14.00;14.00;;;;;25.65;42.19;98941.31;6088305;28;97040;-58
2022/07/25 05:03:42;;;;;;;;;12.20;12.00;;;;;25.76;41.36;98932.41;6089008;28;97427;-58
2022/07/25 05:06:52;;;;;;;;;17.40;16.40;;;;;25.89;41.40;98938.94;6087359;28;96845;-60
2022/07/25 05:09:56;;;;;;;;;15.00;14.60;;;;;26.00;41.15;98937.50;6090788;28;96649;-59
2022/07/25 05:13:01;;;;;;;;;17.25;16.25;;;;;26.10;40.95;98936.38;6088623;28;97366;-59
2022/07/25 05:16:05;;;;;;;;;14.00;14.00;;;;;26.21;40.39;98934.94;6071658;28;96991;-59
2022/07/25 05:19:08;;;;;;;;;15.00;14.00;;;;;26.31;39.99;98934.66;6091980;28;97020;-59
2022/07/25 05:22:12;;;;;;;;;15.00;15.00;;;;;26.44;39.94;98941.19;6079371;28;97090;-59
2022/07/25 05:25:15;;;;;;;;;15.60;15.40;;;;;26.54;39.44;98936.13;6080902;28;96738;-60
2022/07/25 05:28:20;;;;;;;;;12.67;12.67;;;;;26.65;39.81;98926.38;6090399;28;96850;-57
2022/07/25 05:31:23;;;;;;;;;18.00;17.00;;;;;26.77;39.77;98928.47;6091682;28;96926;-59
2022/07/25 05:34:27;;;;;;;;;19.50;18.50;;;;;26.73;39.96;98908.94;6091633;28;97123;-58
2022/07/25 05:37:31;;;;;;;;;14.00;14.00;;;;;27.03;39.26;98934.81;6091462;28;97461;-59
2022/07/25 05:40:34;;;;;;;;;15.00;14.00;;;;;27.14;38.96;98927.78;6089835;28;97677;-59
2022/07/25 05:43:41;;;;;;;;;16.00;14.00;;;;;27.24;38.13;98923.84;6089101;28;97034;-57
2022/07/25 05:46:45;;;;;;;;;12.40;12.40;;;;;27.33;37.62;98932.13;6089943;28;96471;-59
2022/07/25 05:49:48;;;;;;;;;14.00;14.00;;;;;27.40;37.22;98924.94;6089791;28;97004;-60
2022/07/25 05:52:51;;;;;;;;;14.60;14.60;;;;;27.48;36.60;98931.59;6089406;28;98556;-57
2022/07/25 05:55:55;;;;;;;;;16.50;16.50;;;;;27.56;36.58;98931.56;6090671;28;97438;-56
2022/07/25 05:59:01;;;;;;;;;15.00;14.40;;;;;27.64;36.69;98929.94;6091299;28;96530;-59
2022/07/25 06:02:04;;;;;;;;;13.40;13.00;;;;;27.72;37.48;98925.47;6089781;28;99609;-57
2022/07/25 06:05:09;;;;;;;;;15.00;15.00;;;;;27.83;36.47;98932.28;6090442;28;96736;-61
2022/07/25 06:08:12;;;;;;;;;12.75;11.75;;;;;27.91;35.20;98926.69;6086450;28;97409;-60
2022/07/25 06:11:15;;;;;;;;;9.80;9.80;;;;;27.74;35.42;98884.41;6089120;28;96932;-58
2022/07/25 06:14:20;;;;;;;;;10.00;9.80;;;;;28.12;35.26;98928.72;6088892;28;97040;-57
2022/07/25 06:17:25;;;;;;;;;12.20;11.40;;;;;28.21;35.11;98932.22;6088902;28;97490;-57
2022/07/25 06:20:34;;;;;;;;;13.60;13.00;;;;;28.25;36.21;98925.66;6087864;28;97110;-57
2022/07/25 06:23:37;;;;;;;;;13.00;12.00;;;;;28.26;36.79;98920.94;6090441;28;97592;-57
2022/07/25 06:26:41;;;;;;;;;12.60;11.60;;;;;28.41;36.31;98921.16;6080417;28;97086;-57
2022/07/25 06:29:46;;;;;;;;;12.00;11.00;;;;;28.54;35.53;98918.47;6084123;28;96897;-58
2022/07/25 06:32:49;;;;;;;;;18.60;18.60;;;;;28.64;35.56;98920.78;6087370;28;97470;-57
2022/07/25 06:35:53;;;;;;;;;14.50;14.50;;;;;28.74;36.12;98923.19;6088196;28;96698;-60
2022/07/25 06:38:56;;;;;;;;;15.00;14.00;;;;;28.81;35.60;98912.34;6087441;28;97279;-57
2022/07/25 06:42:02;;;;;;;;;14.60;13.60;;;;;28.91;35.99;98911.13;6087804;28;97427;-59
2022/07/25 06:45:12;;;;;;;;;14.00;13.00;;;;;29.02;35.72;98912.31;6087403;28;97328;-59
2022/07/25 06:48:16;;;;;;;;;11.00;11.00;;;;;29.13;36.14;98902.38;6088769;28;96568;-58
2022/07/25 06:51:21;;;;;;;;;11.80;11.00;;;;;29.22;34.31;98898.34;6088374;28;96688;-60
2022/07/25 06:54:25;;;;;;;;;12.50;12.50;;;;;29.29;33.76;98901.38;6088241;28;97162;-59
2022/07/25 06:57:28;;;;;;;;;11.50;11.00;;;;;29.37;33.98;98901.66;6085322;28;97890;-59
2022/07/25 07:00:33;;;;;;;;;10.00;10.00;;;;;29.46;35.33;98894.03;6089231;28;96848;-57
2022/07/25 07:03:38;;;;;;;;;13.00;12.00;;;;;29.57;34.41;98889.63;6089469;28;97426;-58
2022/07/25 07:06:42;;;;;;;;;17.40;16.00;;;;;29.69;34.21;98881.31;6089110;28;97135;-57
2022/07/25 07:09:46;;;;;;;;;13.60;13.00;;;;;29.85;35.39;98871.09;6088953;28;96968;-59
2022/07/25 07:12:49;;;;;;;;;14.00;13.00;;;;;29.99;35.06;98876.31;6089467;28;96640;-57
2022/07/25 07:15:54;;;;;;;;;15.00;13.00;;;;;30.12;34.86;98869.56;6088279;28;97954;-57
2022/07/25 07:18:58;;;;;;;;;15.00;14.00;;;;;30.31;35.24;98869.75;6087935;28;97620;-57
2022/07/25 07:22:01;;;;;;;;;13.00;13.00;;;;;30.51;34.67;98857.66;6088695;28;97567;-58
2022/07/25 07:25:07;;;;;;;;;13.40;12.80;;;;;30.68;33.67;98859.34;6088151;28;97135;-59
2022/07/25 07:28:10;;;;;;;;;12.00;11.00;;;;;30.80;31.95;98856.47;6090603;28;97077;-58
2022/07/25 07:31:16;;;;;;;;;11.00;10.50;;;;;30.96;32.42;98862.09;6093072;28;97162;-56
2022/07/25 07:34:20;;;;;;;;;11.00;11.00;;;;;31.11;32.35;98866.09;6094143;28;96974;-58
2022/07/25 07:37:23;;;;;;;;;10.00;10.00;;;;;31.32;32.12;98863.84;6093595;28;97504;-59
2022/07/25 07:40:27;;;;;;;;;9.00;9.00;;;;;31.47;30.92;98863.06;6093874;28;98245;-57
2022/07/25 07:43:31;;;;;;;;;7.00;6.00;;;;;31.62;31.20;98864.22;6093797;28;97587;-60
2022/07/25 07:46:35;;;;;;;;;13.00;12.00;;;;;31.78;31.17;98859.44;6091289;28;97502;-59
2022/07/25 07:49:39;;;;;;;;;9.00;9.00;;;;;31.92;30.76;98868.13;6093312;28;97198;-59
2022/07/25 07:52:42;;;;;;;;;10.80;9.80;;;;;32.07;30.76;98858.09;6093515;28;98586;-58
2022/07/25 07:55:47;;;;;;;;;8.50;8.50;;;;;32.23;30.46;98864.47;6093478;28;97656;-60
2022/07/25 07:58:50;;;;;;;;;9.60;9.00;;;;;32.40;30.61;98861.22;6092986;28;96858;-57
2022/07/25 08:01:55;;;;;;;;;8.00;8.00;;;;;32.56;29.79;98861.16;6092945;28;97523;-58
2022/07/25 08:04:59;;;;;;;;;12.00;11.00;;;;;32.70;29.87;98860.66;6092627;28;97437;-61
2022/07/25 08:08:02;;;;;;;;;10.00;10.00;;;;;32.87;30.46;98857.41;6090560;28;98434;-58
2022/07/25 08:11:06;;;;;;;;;12.40;12.00;;;;;33.00;28.83;98858.84;6087624;28;98795;-56
2022/07/25 08:14:10;;;;;;;;;10.40;9.40;;;;;33.07;28.16;98859.00;6091742;28;97228;-54
2022/07/25 08:17:15;;;;;;;;;10.00;10.00;;;;;33.15;28.62;98852.34;6091781;28;97381;-63
2022/07/25 08:20:22;;;;;;;;;13.00;12.00;;;;;33.10;29.34;98833.91;6090135;28;96627;-58
2022/07/25 08:23:43;;;;;;;;;8.80;8.80;;;;;33.35;29.14;98853.94;6092240;28;96596;-58
2022/07/25 08:26:47;;;;;;;;;8.20;8.00;;;;;33.49;29.16;98851.38;6090301;28;98622;-57
2022/07/25 08:29:52;;;;;;;;;9.40;8.40;;;;;33.63;28.88;98845.19;6092082;28;97618;-62
2022/07/25 08:33:01;;;;;;;;;10.00;8.80;;;;;33.75;28.44;98852.59;6092321;28;97502;-57
2022/07/25 08:36:05;;;;;;;;;10.00;10.00;;;;;33.88;27.87;98848.41;6090843;28;97315;-56
2022/07/25 08:39:09;;;;;;;;;12.60;11.60;;;;;34.00;27.34;98841.78;6087855;28;98540;-58
2022/07/25 08:42:12;;;;;;;;;8.75;8.75;;;;;34.11;27.43;98832.34;6085559;28;98021;-59
2022/07/25 08:45:18;;;;;;;;;8.50;8.00;;;;;34.28;28.10;98833.81;6089728;28;96656;-57
2022/07/25 08:48:25;;;;;;;;;10.25;10.00;;;;;34.46;27.72;98836.81;6087172;28;96553;-56
2022/07/25 08:51:29;;;;;;;;;10.40;10.40;;;;;34.54;26.17;98830.94;6088767;28;97559;-57
2022/07/25 08:54:32;;;;;;;;;11.40;11.40;;;;;34.61;27.29;98830.19;6089918;28;96767;-60
2022/07/25 08:57:40;;;;;;;;;10.50;10.25;;;;;34.65;26.56;98828.25;6087406;28;96752;-59
2022/07/25 09:00:44;;;;;;;;;10.20;9.80;;;;;34.71;26.72;98826.75;6087014;28;96933;-58
2022/07/25 09:03:49;;;;;;;;;10.00;10.00;;;;;34.84;26.53;98825.31;6088291;28;97531;-59
2022/07/25 09:06:52;;;;;;;;;11.80;11.20;;;;;35.02;26.88;98831.06;6088914;28;98464;-59
2022/07/25 09:09:56;;;;;;;;;13.00;12.00;;;;;35.17;26.33;98830.84;6089209;28;97469;-59
2022/07/25 09:13:03;;;;;;;;;10.00;9.00;;;;;35.36;26.63;98826.19;6085858;28;96644;-58
2022/07/25 09:16:07;;;;;;;;;10.00;10.00;;;;;35.44;25.40;98822.25;6088823;28;98024;-57
2022/07/25 09:19:14;;;;;;;;;9.25;9.25;;;;;35.45;25.73;98804.25;6088895;28;97265;-58
2022/07/25 09:22:18;;;;;;;;;9.00;9.00;;;;;35.66;24.35;98814.84;6084769;28;97561;-58
2022/07/25 09:25:24;;;;;;;;;10.40;10.40;;;;;35.65;24.39;98822.41;6089241;28;97640;-57
2022/07/25 09:28:28;;;;;;;;;12.00;11.00;;;;;35.60;24.50;98812.38;6086309;28;96724;-57
2022/07/25 09:31:33;;;;;;;;;8.00;8.00;;;;;35.60;25.07;98811.56;6089323;28;97784;-56
2022/07/25 09:34:40;;;;;;;;;9.00;9.00;;;;;35.50;23.19;98810.28;6090724;28;97612;-59
2022/07/25 09:37:43;;;;;;;;;9.00;9.00;;;;;35.44;23.86;98808.22;6090986;28;97605;-56
2022/07/25 09:40:59;;;;;;;;;9.00;9.00;;;;;35.45;23.88;98807.03;6082954;28;97436;-57
2022/07/25 09:44:05;;;;;;;;;9.00;9.00;;;;;35.55;24.05;98806.31;6086011;28;97187;-57
2022/07/25 09:47:13;;;;;;;;;8.40;8.00;;;;;35.71;24.91;98804.06;6087226;28;97156;-58
2022/07/25 09:50:19;;;;;;;;;8.00;7.40;;;;;35.80;24.64;98790.50;6086640;28;97336;-57
2022/07/25 09:53:22;;;;;;;;;7.00;7.00;;;;;36.00;23.50;98794.63;6088011;28;97545;-58
2022/07/25 09:56:26;;;;;;;;;7.20;7.20;;;;;36.05;22.21;98796.25;6084429;28;97224;-56
2022/07/25 09:59:30;;;;;;;;;7.00;7.00;;;;;36.07;22.23;98791.03;6085102;28;98263;-56
2022/07/25 10:02:45;;;;;;;;;8.00;8.00;;;;;36.19;22.53;98789.91;6088612;28;97834;-63
2022/07/25 10:06:07;;;;;;;;;7.00;6.40;;;;;36.23;21.93;98790.72;6088164;28;96561;-57
2022/07/25 10:09:12;;;;;;;;;6.75;6.75;;;;;36.28;21.91;98785.53;6090257;28;97249;-54
2022/07/25 10:12:22;;;;;;;;;7.60;7.60;;;;;36.33;21.47;98784.34;6089366;28;98030;-58
2022/07/25 10:15:25;;;;;;;;;9.60;8.60;;;;;36.30;21.91;98780.34;6089761;28;96863;-58
2022/07/25 10:18:30;;;;;;;;;6.00;6.00;;;;;36.36;21.49;98781.56;6080467;28;97091;-58
2022/07/25 10:21:35;;;;;;;;;6.00;6.00;;;;;36.37;21.24;98771.94;6082983;28;97424;-56
2022/07/25 10:24:43;;;;;;;;;7.00;7.00;;;;;36.50;22.09;98777.19;6072676;28;97423;-57
2022/07/25 10:27:48;;;;;;;;;8.40;8.40;;;;;36.66;20.95;98775.66;6078321;28;97497;-55
2022/07/25 10:30:58;;;;;;;;;9.40;8.40;;;;;36.76;20.38;98769.25;6087597;28;97045;-56
2022/07/25 10:34:04;;;;;;;;;8.75;8.75;;;;;36.84;20.90;98765.25;6088714;28;97430;-57
2022/07/25 10:37:14;;;;;;;;;6.50;6.00;;;;;36.89;20.98;98767.69;6089462;28;97468;-61
2022/07/25 10:40:29;;;;;;;;;7.00;7.00;;;;;36.84;20.18;98756.84;6090566;28;97425;-57
2022/07/25 10:43:38;;;;;;;;;7.00;7.00;;;;;36.84;20.88;98758.84;6072021;28;98302;-58
2022/07/25 10:46:43;;;;;;;;;4.00;4.00;;;;;36.82;20.14;98759.22;6089937;28;96594;-56
2022/07/25 10:49:48;;;;;;;;;7.00;6.00;;;;;36.78;20.06;98741.56;6090461;28;97413;-59
2022/07/25 10:53:13;;;;;;;;;5.00;5.00;;;;;36.81;20.70;98735.13;6088849;28;96964;-61
2022/07/25 10:56:18;;;;;;;;;6.60;6.60;;;;;36.81;20.19;98737.13;6089564;28;97452;-62
2022/07/25 10:59:29;;;;;;;;;5.00;5.00;;;;;36.67;19.12;98739.94;6089807;28;96768;-58
2022/07/25 11:02:33;;;;;;;;;4.80;4.80;;;;;36.60;19.07;98731.47;6089964;28;96826;-57
2022/07/25 11:05:44;;;;;;;;;6.00;6.00;;;;;36.61;19.43;98738.72;6083744;28;97101;-61
2022/07/25 11:08:49;;;;;;;;;7.40;7.00;;;;;36.57;19.67;98735.88;6086429;28;96770;-58
2022/07/25 11:11:55;;;;;;;;;4.00;4.00;;;;;36.30;19.79;98696.13;6090720;28;97017;-58
2022/07/25 11:15:01;;;;;;;;;4.60;4.60;;;;;36.51;19.50;98723.41;6086819;28;97277;-61
2022/07/25 11:18:05;;;;;;;;;6.00;6.00;;;;;36.55;19.62;98718.63;6088286;28;96709;-59
2022/07/25 11:21:09;;;;;;;;;6.80;6.80;;;;;36.58;19.30;98717.03;6080356;28;97547;-61
2022/07/25 11:24:14;;;;;;;;;8.00;8.00;;;;;36.68;20.07;98710.66;6083091;28;97466;-60
2022/07/25 11:27:22;;;;;;;;;6.00;6.00;;;;;36.84;20.11;98697.84;6089891;28;96772;-59
2022/07/25 11:30:27;;;;;;;;;5.00;5.00;;;;;37.00;19.34;98699.41;6091387;28;98712;-56
2022/07/25 11:33:31;;;;;;;;;6.75;6.75;;;;;36.79;18.73;98672.13;6091436;28;96967;-60
2022/07/25 11:36:35;;;;;;;;;5.00;5.00;;;;;36.89;18.99;98694.63;6091412;28;97898;-58
2022/07/25 11:39:41;;;;;;;;;5.50;5.50;;;;;36.71;18.15;98690.97;6090572;28;96746;-58
2022/07/25 11:42:47;;;;;;;;;6.20;6.20;;;;;36.60;18.60;98681.75;6092657;28;97189;-65
2022/07/25 11:45:57;;;;;;;;;6.25;6.00;;;;;36.49;18.71;98680.91;6091170;28;98265;-60
2022/07/25 11:49:06;;;;;;;;;7.00;6.00;;;;;36.52;18.84;98670.88;6091369;28;97524;-59
2022/07/25 11:52:19;;;;;;;;;5.00;5.00;;;;;36.55;19.72;98668.09;6089796;28;97922;-58
2022/07/25 11:55:28;;;;;;;;;6.00;6.00;;;;;36.73;20.00;98666.13;6088110;28;98126;-56
2022/07/25 11:58:32;;;;;;;;;7.40;7.40;;;;;36.87;20.07;98668.91;6091493;28;96699;-58
2022/07/25 12:01:37;;;;;;;;;5.75;5.75;;;;;36.90;18.84;98651.25;6090921;28;99010;-57
2022/07/25 12:04:40;;;;;;;;;7.00;7.00;;;;;36.96;19.07;98659.28;6091502;28;97359;-59
2022/07/25 12:07:45;;;;;;;;;7.00;6.00;;;;;36.83;18.82;98622.38;6092240;28;96766;-59
2022/07/25 12:10:51;;;;;;;;;8.00;7.00;;;;;37.02;18.04;98647.22;6092102;28;97215;-60
2022/07/25 12:14:03;;;;;;;;;7.00;6.00;;;;;37.02;17.72;98646.44;6091451;28;97023;-59
2022/07/25 12:17:06;;;;;;;;;5.20;5.00;;;;;36.99;18.66;98631.19;6092769;28;97253;-58
2022/07/25 12:20:17;;;;;;;;;4.60;4.60;;;;;36.98;18.54;98632.38;6092695;28;97590;-58
2022/07/25 12:23:21;;;;;;;;;6.00;6.00;;;;;37.01;18.56;98622.31;6092558;28;96555;-59
2022/07/25 12:26:26;;;;;;;;;6.60;6.60;;;;;37.06;18.69;98619.09;6091204;28;96868;-60
2022/07/25 12:29:29;;;;;;;;;9.00;8.00;;;;;37.14;19.31;98624.34;6089557;28;96912;-56
2022/07/25 12:32:32;;;;;;;;;7.00;6.50;;;;;37.20;18.58;98616.28;6092005;28;97050;-59
2022/07/25 12:35:36;;;;;;;;;8.00;7.00;;;;;37.23;18.69;98612.69;6091932;28;96953;-56
2022/07/25 12:38:40;;;;;;;;;8.00;7.25;;;;;37.31;18.80;98603.00;6092219;28;97078;-57
2022/07/25 12:41:45;;;;;;;;;4.40;4.40;;;;;37.43;18.44;98613.84;6090653;28;98087;-57
2022/07/25 12:44:48;;;;;;;;;6.80;6.00;;;;;37.37;17.59;98590.16;6091932;28;96887;-57
2022/07/25 12:47:52;;;;;;;;;7.00;6.00;;;;;37.47;18.34;98608.19;6091108;28;96592;-59
2022/07/25 12:50:55;;;;;;;;;8.00;7.00;;;;;37.43;18.30;98599.78;6092044;28;98679;-57
2022/07/25 12:53:58;;;;;;;;;5.50;5.00;;;;;37.35;17.97;98595.38;6091866;28;97084;-57
2022/07/25 12:57:03;;;;;;;;;6.00;6.00;;;;;37.27;18.54;98590.97;6089743;28;96724;-58
2022/07/25 13:00:09;;;;;;;;;8.00;6.00;;;;;37.19;18.79;98584.56;6087849;28;97627;-56
2022/07/25 13:03:14;;;;;;;;;6.75;6.75;;;;;37.11;17.99;98588.63;6090113;28;96697;-59
2022/07/25 13:06:19;;;;;;;;;5.25;5.25;;;;;37.10;18.54;98583.38;6088949;28;97507;-62
2022/07/25 13:09:23;;;;;;;;;7.00;7.00;;;;;37.04;18.73;98583.00;6075941;28;97568;-59
2022/07/25 13:12:28;;;;;;;;;8.60;8.60;;;;;37.04;19.77;98585.00;6089146;28;97658;-58
2022/07/25 13:15:31;;;;;;;;;7.40;7.00;;;;;37.08;18.67;98578.19;6086822;28;96922;-55
2022/07/25 13:18:34;;;;;;;;;5.00;5.00;;;;;37.08;18.90;98568.97;6088842;28;97339;-60
2022/07/25 13:21:38;;;;;;;;;6.00;5.40;;;;;37.04;18.34;98563.31;6089527;28;97175;-58
2022/07/25 13:24:42;;;;;;;;;5.00;5.00;;;;;36.98;18.13;98559.31;6090490;28;96785;-59
2022/07/25 13:27:48;;;;;;;;;5.00;5.00;;;;;36.95;18.06;98548.88;6090896;28;97240;-58
2022/07/25 13:30:52;;;;;;;;;9.00;8.00;;;;;37.00;19.00;98551.28;6091546;28;96932;-60
2022/07/25 13:33:55;;;;;;;;;6.60;6.60;;;;;37.09;19.04;98545.28;6088878;28;97484;-59
2022/07/25 13:36:58;;;;;;;;;9.00;8.00;;;;;37.16;18.57;98546.03;6090687;28;97481;-59
2022/07/25 13:40:02;;;;;;;;;9.00;9.00;;;;;37.22;19.53;98538.00;6090922;28;97457;-58
2022/07/25 13:43:06;;;;;;;;;9.00;8.60;;;;;37.26;18.99;98530.34;6091400;28;97407;-59
2022/07/25 13:46:10;;;;;;;;;6.00;6.00;;;;;37.33;19.17;98535.13;6089487;28;96617;-59
2022/07/25 13:49:14;;;;;;;;;5.60;5.20;;;;;37.27;18.06;98526.31;6090012;28;96451;-61
2022/07/25 13:52:17;;;;;;;;;6.00;6.00;;;;;37.21;18.82;98530.75;6090201;28;98408;-60
2022/07/25 13:55:21;;;;;;;;;7.00;7.00;;;;;37.11;18.70;98523.97;6090472;28;96626;-60
2022/07/25 13:58:25;;;;;;;;;7.00;7.00;;;;;37.03;18.57;98516.75;6090917;28;96798;-59
2022/07/25 14:01:29;;;;;;;;;8.00;8.00;;;;;37.05;19.57;98513.50;6091138;28;96820;-59
2022/07/25 14:04:33;;;;;;;;;7.60;7.60;;;;;37.11;19.92;98512.72;6089304;28;96848;-57
2022/07/25 14:07:36;;;;;;;;;9.00;9.00;;;;;37.10;18.64;98513.13;6087348;28;97297;-58
2022/07/25 14:10:40;;;;;;;;;7.00;6.00;;;;;37.06;18.73;98506.69;6078234;28;96586;-60
2022/07/25 14:13:45;;;;;;;;;5.80;5.00;;;;;37.05;19.16;98505.88;6083824;28;97565;-56
2022/07/25 14:16:48;;;;;;;;;8.00;7.00;;;;;37.04;19.18;98507.13;6089009;28;96659;-58
2022/07/25 14:19:52;;;;;;;;;5.25;5.25;;;;;37.09;19.09;98497.50;6090565;28;97765;-60